sensor_id;sensor_type;location;lat;lon;timestamp;P1;durP1;ratioP1;P2;durP2;ratioP2
21183;SDS011;18176;49.502;11.754;2023-11-21T00:01:33;5.63;;;1.60;;
21183;SDS011;18176;49.502;11.754;2023-11-21T00:05:36;5.13;;;1.70;;
21183;SDS011;18176;49.502;11.754;2023-11-21T00:09:38;5.73;;;1.90;;
21183;SDS011;18176;49.502;11.754;2023-11-21T00:13:39;5.27;;;1.60;;
21183;SDS011;18176;49.502;11.754;2023-11-21T00:17:40;3.60;;;1.57;;
21183;SDS011;18176;49.502;11.754;2023-11-21T00:21:43;3.20;;;1.53;;
21183;SDS011;18176;49.502;11.754;2023-11-21T00:25:44;2.60;;;1.50;;
21183;SDS011;18176;49.502;11.754;2023-11-21T00:29:44;2.87;;;1.30;;
21183;SDS011;18176;49.502;11.754;2023-11-21T00:33:44;5.40;;;1.57;;
21183;SDS011;18176;49.502;11.754;2023-11-21T00:37:48;4.10;;;1.50;;
21183;SDS011;18176;49.502;11.754;2023-11-21T00:41:49;9.37;;;1.50;;
21183;SDS011;18176;49.502;11.754;2023-11-21T00:45:50;1.97;;;1.30;;
21183;SDS011;18176;49.502;11.754;2023-11-21T00:49:50;2.17;;;1.20;;
21183;SDS011;18176;49.502;11.754;2023-11-21T00:53:53;1.90;;;1.20;;
21183;SDS011;18176;49.502;11.754;2023-11-21T00:57:53;2.83;;;1.20;;
21183;SDS011;18176;49.502;11.754;2023-11-21T01:01:55;2.43;;;1.20;;
21183;SDS011;18176;49.502;11.754;2023-11-21T01:05:57;2.57;;;1.40;;
21183;SDS011;18176;49.502;11.754;2023-11-21T01:10:00;3.13;;;1.23;;
21183;SDS011;18176;49.502;11.754;2023-11-21T01:14:02;2.53;;;1.40;;
21183;SDS011;18176;49.502;11.754;2023-11-21T01:18:05;2.47;;;1.00;;
21183;SDS011;18176;49.502;11.754;2023-11-21T01:22:05;2.77;;;1.70;;
21183;SDS011;18176;49.502;11.754;2023-11-21T01:26:08;2.40;;;1.20;;
21183;SDS011;18176;49.502;11.754;2023-11-21T01:30:09;1.90;;;1.13;;
21183;SDS011;18176;49.502;11.754;2023-11-21T01:34:10;2.77;;;1.37;;
21183;SDS011;18176;49.502;11.754;2023-11-21T01:38:11;2.37;;;1.40;;
21183;SDS011;18176;49.502;11.754;2023-11-21T01:42:16;1.73;;;1.10;;
21183;SDS011;18176;49.502;11.754;2023-11-21T01:46:16;2.47;;;1.00;;
21183;SDS011;18176;49.502;11.754;2023-11-21T01:50:17;1.60;;;1.13;;
21183;SDS011;18176;49.502;11.754;2023-11-21T01:54:19;7.57;;;2.47;;
21183;SDS011;18176;49.502;11.754;2023-11-21T01:58:23;2.50;;;1.60;;
21183;SDS011;18176;49.502;11.754;2023-11-21T02:02:23;2.93;;;1.30;;
21183;SDS011;18176;49.502;11.754;2023-11-21T02:06:25;1.60;;;1.00;;
21183;SDS011;18176;49.502;11.754;2023-11-21T02:10:27;1.73;;;1.00;;
21183;SDS011;18176;49.502;11.754;2023-11-21T02:14:30;1.37;;;0.77;;
21183;SDS011;18176;49.502;11.754;2023-11-21T02:18:31;1.57;;;0.80;;
21183;SDS011;18176;49.502;11.754;2023-11-21T02:22:31;3.90;;;1.07;;
21183;SDS011;18176;49.502;11.754;2023-11-21T02:26:41;2.60;;;1.13;;
21183;SDS011;18176;49.502;11.754;2023-11-21T02:30:42;1.87;;;1.03;;
21183;SDS011;18176;49.502;11.754;2023-11-21T02:34:43;1.23;;;1.10;;
21183;SDS011;18176;49.502;11.754;2023-11-21T02:38:43;2.77;;;1.47;;
21183;SDS011;18176;49.502;11.754;2023-11-21T02:42:46;2.20;;;1.00;;
21183;SDS011;18176;49.502;11.754;2023-11-21T02:46:48;1.93;;;1.10;;
21183;SDS011;18176;49.502;11.754;2023-11-21T02:50:48;2.47;;;1.10;;
21183;SDS011;18176;49.502;11.754;2023-11-21T02:54:50;1.83;;;0.90;;
21183;SDS011;18176;49.502;11.754;2023-11-21T02:58:54;2.50;;;1.00;;
21183;SDS011;18176;49.502;11.754;2023-11-21T03:02:56;2.03;;;1.10;;
21183;SDS011;18176;49.502;11.754;2023-11-21T03:06:57;1.27;;;0.70;;
21183;SDS011;18176;49.502;11.754;2023-11-21T03:10:57;2.67;;;0.70;;
21183;SDS011;18176;49.502;11.754;2023-11-21T03:15:02;0.77;;;0.60;;
21183;SDS011;18176;49.502;11.754;2023-11-21T03:19:03;1.57;;;0.83;;
21183;SDS011;18176;49.502;11.754;2023-11-21T03:23:05;1.40;;;0.70;;
21183;SDS011;18176;49.502;11.754;2023-11-21T03:27:05;0.63;;;0.60;;
21183;SDS011;18176;49.502;11.754;2023-11-21T03:31:08;1.23;;;0.70;;
21183;SDS011;18176;49.502;11.754;2023-11-21T03:35:08;2.10;;;0.80;;
21183;SDS011;18176;49.502;11.754;2023-11-21T03:39:09;2.73;;;0.83;;
21183;SDS011;18176;49.502;11.754;2023-11-21T03:43:09;2.63;;;0.87;;
21183;SDS011;18176;49.502;11.754;2023-11-21T03:47:12;1.67;;;1.57;;
21183;SDS011;18176;49.502;11.754;2023-11-21T03:51:13;3.00;;;2.00;;
21183;SDS011;18176;49.502;11.754;2023-11-21T03:55:13;2.50;;;1.77;;
21183;SDS011;18176;49.502;11.754;2023-11-21T03:59:13;3.73;;;2.40;;
21183;SDS011;18176;49.502;11.754;2023-11-21T04:03:16;3.00;;;1.70;;
21183;SDS011;18176;49.502;11.754;2023-11-21T04:07:17;3.50;;;1.83;;
21183;SDS011;18176;49.502;11.754;2023-11-21T04:11:18;3.90;;;2.00;;
21183;SDS011;18176;49.502;11.754;2023-11-21T04:15:19;2.70;;;2.10;;
21183;SDS011;18176;49.502;11.754;2023-11-21T04:19:21;2.23;;;1.80;;
21183;SDS011;18176;49.502;11.754;2023-11-21T04:23:22;2.27;;;1.43;;
21183;SDS011;18176;49.502;11.754;2023-11-21T04:27:22;1.67;;;1.40;;
21183;SDS011;18176;49.502;11.754;2023-11-21T04:31:22;3.17;;;2.00;;
21183;SDS011;18176;49.502;11.754;2023-11-21T04:35:25;3.30;;;2.10;;
21183;SDS011;18176;49.502;11.754;2023-11-21T04:39:26;3.83;;;2.53;;
21183;SDS011;18176;49.502;11.754;2023-11-21T04:43:26;6.30;;;4.30;;
21183;SDS011;18176;49.502;11.754;2023-11-21T04:47:26;4.07;;;3.00;;
21183;SDS011;18176;49.502;11.754;2023-11-21T04:51:29;5.73;;;2.37;;
21183;SDS011;18176;49.502;11.754;2023-11-21T04:55:29;2.17;;;1.97;;
21183;SDS011;18176;49.502;11.754;2023-11-21T04:59:30;1.97;;;1.60;;
21183;SDS011;18176;49.502;11.754;2023-11-21T05:03:30;4.97;;;1.73;;
21183;SDS011;18176;49.502;11.754;2023-11-21T05:07:33;6.10;;;2.47;;
21183;SDS011;18176;49.502;11.754;2023-11-21T05:11:34;3.63;;;2.40;;
21183;SDS011;18176;49.502;11.754;2023-11-21T05:15:34;3.67;;;2.10;;
21183;SDS011;18176;49.502;11.754;2023-11-21T05:19:34;2.90;;;2.13;;
21183;SDS011;18176;49.502;11.754;2023-11-21T05:23:39;8.07;;;2.47;;
21183;SDS011;18176;49.502;11.754;2023-11-21T05:27:40;4.57;;;1.97;;
21183;SDS011;18176;49.502;11.754;2023-11-21T05:31:40;11.30;;;4.33;;
21183;SDS011;18176;49.502;11.754;2023-11-21T05:35:40;4.93;;;3.30;;
21183;SDS011;18176;49.502;11.754;2023-11-21T05:39:43;6.33;;;3.70;;
21183;SDS011;18176;49.502;11.754;2023-11-21T05:43:43;9.37;;;3.50;;
21183;SDS011;18176;49.502;11.754;2023-11-21T05:47:44;6.40;;;3.40;;
21183;SDS011;18176;49.502;11.754;2023-11-21T05:51:46;8.40;;;3.37;;
21183;SDS011;18176;49.502;11.754;2023-11-21T05:55:48;7.43;;;2.97;;
21183;SDS011;18176;49.502;11.754;2023-11-21T05:59:49;4.50;;;3.10;;
21183;SDS011;18176;49.502;11.754;2023-11-21T06:03:49;4.43;;;3.33;;
21183;SDS011;18176;49.502;11.754;2023-11-21T06:07:51;6.30;;;4.20;;
21183;SDS011;18176;49.502;11.754;2023-11-21T06:11:55;7.37;;;4.10;;
21183;SDS011;18176;49.502;11.754;2023-11-21T06:15:56;28.13;;;6.63;;
21183;SDS011;18176;49.502;11.754;2023-11-21T06:19:57;8.27;;;4.67;;
21183;SDS011;18176;49.502;11.754;2023-11-21T06:23:57;7.07;;;4.17;;
21183;SDS011;18176;49.502;11.754;2023-11-21T06:28:00;8.13;;;3.73;;
21183;SDS011;18176;49.502;11.754;2023-11-21T06:32:01;4.87;;;3.00;;
21183;SDS011;18176;49.502;11.754;2023-11-21T06:36:03;4.50;;;3.10;;
21183;SDS011;18176;49.502;11.754;2023-11-21T06:40:04;6.23;;;3.20;;
21183;SDS011;18176;49.502;11.754;2023-11-21T06:44:09;4.93;;;2.83;;
21183;SDS011;18176;49.502;11.754;2023-11-21T06:48:10;4.73;;;3.13;;
21183;SDS011;18176;49.502;11.754;2023-11-21T06:52:11;5.20;;;3.50;;
21183;SDS011;18176;49.502;11.754;2023-11-21T06:56:15;5.50;;;3.70;;
21183;SDS011;18176;49.502;11.754;2023-11-21T07:00:19;3.83;;;2.90;;
21183;SDS011;18176;49.502;11.754;2023-11-21T07:04:19;5.10;;;3.40;;
21183;SDS011;18176;49.502;11.754;2023-11-21T07:08:19;8.60;;;4.30;;
21183;SDS011;18176;49.502;11.754;2023-11-21T07:12:20;6.67;;;4.07;;
21183;SDS011;18176;49.502;11.754;2023-11-21T07:16:25;7.43;;;4.13;;
21183;SDS011;18176;49.502;11.754;2023-11-21T07:20:27;7.20;;;4.40;;
21183;SDS011;18176;49.502;11.754;2023-11-21T07:24:28;14.13;;;9.00;;
21183;SDS011;18176;49.502;11.754;2023-11-21T07:28:28;12.53;;;8.83;;
21183;SDS011;18176;49.502;11.754;2023-11-21T07:32:31;18.97;;;13.10;;
21183;SDS011;18176;49.502;11.754;2023-11-21T07:36:32;17.47;;;10.73;;
21183;SDS011;18176;49.502;11.754;2023-11-21T07:40:32;12.20;;;7.27;;
21183;SDS011;18176;49.502;11.754;2023-11-21T07:44:33;13.00;;;7.90;;
21183;SDS011;18176;49.502;11.754;2023-11-21T07:48:36;11.97;;;6.83;;
21183;SDS011;18176;49.502;11.754;2023-11-21T07:52:36;8.67;;;5.77;;
21183;SDS011;18176;49.502;11.754;2023-11-21T07:56:36;14.43;;;8.53;;
21183;SDS011;18176;49.502;11.754;2023-11-21T08:00:37;11.93;;;8.70;;
21183;SDS011;18176;49.502;11.754;2023-11-21T08:04:39;17.00;;;10.83;;
21183;SDS011;18176;49.502;11.754;2023-11-21T08:08:41;15.20;;;8.47;;
21183;SDS011;18176;49.502;11.754;2023-11-21T08:12:41;11.33;;;8.13;;
21183;SDS011;18176;49.502;11.754;2023-11-21T08:16:41;9.97;;;7.00;;
21183;SDS011;18176;49.502;11.754;2023-11-21T08:20:44;10.60;;;7.20;;
21183;SDS011;18176;49.502;11.754;2023-11-21T08:24:46;11.03;;;6.47;;
21183;SDS011;18176;49.502;11.754;2023-11-21T08:28:47;11.10;;;6.53;;
21183;SDS011;18176;49.502;11.754;2023-11-21T08:32:48;10.47;;;5.40;;
21183;SDS011;18176;49.502;11.754;2023-11-21T08:36:53;10.30;;;5.20;;
21183;SDS011;18176;49.502;11.754;2023-11-21T08:40:54;6.30;;;4.47;;
21183;SDS011;18176;49.502;11.754;2023-11-21T08:44:54;8.03;;;4.63;;
21183;SDS011;18176;49.502;11.754;2023-11-21T08:48:54;6.43;;;4.40;;
21183;SDS011;18176;49.502;11.754;2023-11-21T08:52:57;7.20;;;3.90;;
21183;SDS011;18176;49.502;11.754;2023-11-21T08:56:58;6.87;;;5.10;;
21183;SDS011;18176;49.502;11.754;2023-11-21T09:00:58;6.40;;;5.07;;
21183;SDS011;18176;49.502;11.754;2023-11-21T09:04:58;6.87;;;4.80;;
21183;SDS011;18176;49.502;11.754;2023-11-21T09:09:02;4.53;;;3.67;;
21183;SDS011;18176;49.502;11.754;2023-11-21T09:13:05;4.50;;;3.70;;
21183;SDS011;18176;49.502;11.754;2023-11-21T09:17:05;4.10;;;3.10;;
21183;SDS011;18176;49.502;11.754;2023-11-21T09:21:07;3.57;;;3.00;;
21183;SDS011;18176;49.502;11.754;2023-11-21T09:25:11;4.37;;;2.70;;
21183;SDS011;18176;49.502;11.754;2023-11-21T09:29:11;4.00;;;2.70;;
21183;SDS011;18176;49.502;11.754;2023-11-21T09:33:12;4.17;;;2.67;;
21183;SDS011;18176;49.502;11.754;2023-11-21T09:37:13;3.10;;;2.50;;
21183;SDS011;18176;49.502;11.754;2023-11-21T09:41:19;5.33;;;2.80;;
21183;SDS011;18176;49.502;11.754;2023-11-21T09:45:32;2.77;;;2.47;;
21183;SDS011;18176;49.502;11.754;2023-11-21T09:49:35;4.03;;;2.67;;
21183;SDS011;18176;49.502;11.754;2023-11-21T09:53:37;3.27;;;2.93;;
21183;SDS011;18176;49.502;11.754;2023-11-21T09:57:46;2.47;;;2.27;;
21183;SDS011;18176;49.502;11.754;2023-11-21T10:01:47;3.33;;;2.50;;
21183;SDS011;18176;49.502;11.754;2023-11-21T10:05:50;5.23;;;2.23;;
21183;SDS011;18176;49.502;11.754;2023-11-21T10:09:53;4.50;;;2.80;;
21183;SDS011;18176;49.502;11.754;2023-11-21T10:13:57;4.70;;;2.90;;
21183;SDS011;18176;49.502;11.754;2023-11-21T10:18:02;3.37;;;2.73;;
21183;SDS011;18176;49.502;11.754;2023-11-21T10:22:06;2.73;;;2.37;;
21183;SDS011;18176;49.502;11.754;2023-11-21T10:26:06;3.83;;;2.53;;
21183;SDS011;18176;49.502;11.754;2023-11-21T10:30:30;3.37;;;2.40;;
21183;SDS011;18176;49.502;11.754;2023-11-21T10:34:33;5.70;;;3.57;;
21183;SDS011;18176;49.502;11.754;2023-11-21T10:38:37;2.90;;;2.40;;
21183;SDS011;18176;49.502;11.754;2023-11-21T10:42:48;2.40;;;2.20;;
21183;SDS011;18176;49.502;11.754;2023-11-21T10:46:52;2.87;;;2.50;;
21183;SDS011;18176;49.502;11.754;2023-11-21T10:50:57;4.30;;;3.70;;
21183;SDS011;18176;49.502;11.754;2023-11-21T10:54:58;3.00;;;2.70;;
21183;SDS011;18176;49.502;11.754;2023-11-21T10:59:00;3.73;;;2.73;;
21183;SDS011;18176;49.502;11.754;2023-11-21T11:03:05;3.83;;;2.27;;
21183;SDS011;18176;49.502;11.754;2023-11-21T11:07:13;3.10;;;2.10;;
21183;SDS011;18176;49.502;11.754;2023-11-21T11:11:16;5.23;;;3.17;;
21183;SDS011;18176;49.502;11.754;2023-11-21T11:15:17;4.70;;;3.10;;
21183;SDS011;18176;49.502;11.754;2023-11-21T11:19:21;5.10;;;3.67;;
21183;SDS011;18176;49.502;11.754;2023-11-21T11:23:32;3.80;;;2.10;;
21183;SDS011;18176;49.502;11.754;2023-11-21T11:27:52;2.40;;;1.80;;
21183;SDS011;18176;49.502;11.754;2023-11-21T11:32:05;2.03;;;1.80;;
21183;SDS011;18176;49.502;11.754;2023-11-21T11:36:21;3.93;;;1.67;;
21183;SDS011;18176;49.502;11.754;2023-11-21T11:40:38;1.90;;;1.30;;
21183;SDS011;18176;49.502;11.754;2023-11-21T11:44:49;1.80;;;1.70;;
21183;SDS011;18176;49.502;11.754;2023-11-21T11:49:02;1.17;;;0.70;;
21183;SDS011;18176;49.502;11.754;2023-11-21T11:53:16;1.67;;;1.00;;
21183;SDS011;18176;49.502;11.754;2023-11-21T11:57:16;2.10;;;0.80;;
21183;SDS011;18176;49.502;11.754;2023-11-21T12:01:16;1.93;;;1.20;;
21183;SDS011;18176;49.502;11.754;2023-11-21T12:05:19;1.50;;;1.10;;
21183;SDS011;18176;49.502;11.754;2023-11-21T12:09:27;2.90;;;1.10;;
21183;SDS011;18176;49.502;11.754;2023-11-21T12:13:28;3.30;;;1.10;;
21183;SDS011;18176;49.502;11.754;2023-11-21T12:17:28;1.20;;;0.90;;
21183;SDS011;18176;49.502;11.754;2023-11-21T12:21:29;1.53;;;1.23;;
21183;SDS011;18176;49.502;11.754;2023-11-21T12:25:33;1.50;;;1.20;;
21183;SDS011;18176;49.502;11.754;2023-11-21T12:29:33;3.90;;;1.23;;
21183;SDS011;18176;49.502;11.754;2023-11-21T12:33:34;2.17;;;1.17;;
21183;SDS011;18176;49.502;11.754;2023-11-21T12:37:35;2.07;;;1.30;;
21183;SDS011;18176;49.502;11.754;2023-11-21T12:41:38;4.33;;;1.83;;
21183;SDS011;18176;49.502;11.754;2023-11-21T12:45:40;2.90;;;1.97;;
21183;SDS011;18176;49.502;11.754;2023-11-21T12:49:40;1.97;;;1.07;;
21183;SDS011;18176;49.502;11.754;2023-11-21T12:53:41;1.87;;;1.27;;
21183;SDS011;18176;49.502;11.754;2023-11-21T12:57:47;2.33;;;1.20;;
21183;SDS011;18176;49.502;11.754;2023-11-21T13:01:51;3.23;;;1.37;;
21183;SDS011;18176;49.502;11.754;2023-11-21T13:05:56;1.17;;;1.07;;
21183;SDS011;18176;49.502;11.754;2023-11-21T13:09:57;2.40;;;1.30;;
21183;SDS011;18176;49.502;11.754;2023-11-21T13:14:06;4.97;;;2.53;;
21183;SDS011;18176;49.502;11.754;2023-11-21T13:18:08;9.97;;;3.90;;
21183;SDS011;18176;49.502;11.754;2023-11-21T13:22:09;1.87;;;1.57;;
21183;SDS011;18176;49.502;11.754;2023-11-21T13:26:10;2.20;;;1.70;;
21183;SDS011;18176;49.502;11.754;2023-11-21T13:30:15;1.47;;;1.37;;
21183;SDS011;18176;49.502;11.754;2023-11-21T13:34:20;3.63;;;1.50;;
21183;SDS011;18176;49.502;11.754;2023-11-21T13:38:29;3.63;;;1.37;;
21183;SDS011;18176;49.502;11.754;2023-11-21T13:42:30;4.00;;;2.17;;
21183;SDS011;18176;49.502;11.754;2023-11-21T13:46:33;4.17;;;2.77;;
21183;SDS011;18176;49.502;11.754;2023-11-21T13:50:34;8.90;;;5.23;;
21183;SDS011;18176;49.502;11.754;2023-11-21T13:54:35;11.30;;;7.90;;
21183;SDS011;18176;49.502;11.754;2023-11-21T13:58:36;10.23;;;7.27;;
21183;SDS011;18176;49.502;11.754;2023-11-21T14:02:45;13.17;;;9.27;;
21183;SDS011;18176;49.502;11.754;2023-11-21T14:06:46;21.13;;;12.60;;
21183;SDS011;18176;49.502;11.754;2023-11-21T14:10:51;20.00;;;12.97;;
21183;SDS011;18176;49.502;11.754;2023-11-21T14:14:54;18.30;;;12.20;;
21183;SDS011;18176;49.502;11.754;2023-11-21T14:18:57;16.07;;;10.73;;
21183;SDS011;18176;49.502;11.754;2023-11-21T14:23:09;8.17;;;4.27;;
21183;SDS011;18176;49.502;11.754;2023-11-21T14:27:10;4.67;;;3.00;;
21183;SDS011;18176;49.502;11.754;2023-11-21T14:31:11;5.10;;;2.70;;
21183;SDS011;18176;49.502;11.754;2023-11-21T14:35:16;4.17;;;2.30;;
21183;SDS011;18176;49.502;11.754;2023-11-21T14:39:16;4.83;;;2.40;;
21183;SDS011;18176;49.502;11.754;2023-11-21T14:43:20;4.40;;;3.03;;
21183;SDS011;18176;49.502;11.754;2023-11-21T14:47:22;5.10;;;2.90;;
21183;SDS011;18176;49.502;11.754;2023-11-21T14:51:27;4.97;;;2.87;;
21183;SDS011;18176;49.502;11.754;2023-11-21T14:55:40;5.47;;;3.37;;
21183;SDS011;18176;49.502;11.754;2023-11-21T14:59:53;4.70;;;3.10;;
21183;SDS011;18176;49.502;11.754;2023-11-21T15:03:54;6.53;;;3.90;;
21183;SDS011;18176;49.502;11.754;2023-11-21T15:07:58;4.40;;;3.33;;
21183;SDS011;18176;49.502;11.754;2023-11-21T15:12:10;5.60;;;3.57;;
21183;SDS011;18176;49.502;11.754;2023-11-21T15:16:16;7.80;;;4.20;;
21183;SDS011;18176;49.502;11.754;2023-11-21T15:20:17;11.10;;;5.37;;
21183;SDS011;18176;49.502;11.754;2023-11-21T15:24:22;9.70;;;4.00;;
21183;SDS011;18176;49.502;11.754;2023-11-21T15:28:22;7.50;;;5.33;;
21183;SDS011;18176;49.502;11.754;2023-11-21T15:32:25;5.00;;;3.30;;
21183;SDS011;18176;49.502;11.754;2023-11-21T15:36:25;10.77;;;4.63;;
21183;SDS011;18176;49.502;11.754;2023-11-21T15:40:28;15.57;;;6.77;;
21183;SDS011;18176;49.502;11.754;2023-11-21T15:44:29;13.07;;;5.23;;
21183;SDS011;18176;49.502;11.754;2023-11-21T15:48:30;13.87;;;5.00;;
21183;SDS011;18176;49.502;11.754;2023-11-21T15:52:30;9.10;;;3.73;;
21183;SDS011;18176;49.502;11.754;2023-11-21T15:56:33;9.17;;;3.80;;
21183;SDS011;18176;49.502;11.754;2023-11-21T16:00:33;10.53;;;3.80;;
21183;SDS011;18176;49.502;11.754;2023-11-21T16:04:34;12.67;;;4.40;;
21183;SDS011;18176;49.502;11.754;2023-11-21T16:08:34;8.40;;;3.50;;
21183;SDS011;18176;49.502;11.754;2023-11-21T16:12:38;8.73;;;3.80;;
21183;SDS011;18176;49.502;11.754;2023-11-21T16:16:39;11.87;;;5.07;;
21183;SDS011;18176;49.502;11.754;2023-11-21T16:20:39;11.83;;;4.73;;
21183;SDS011;18176;49.502;11.754;2023-11-21T16:24:40;6.53;;;3.80;;
21183;SDS011;18176;49.502;11.754;2023-11-21T16:28:43;7.23;;;3.40;;
21183;SDS011;18176;49.502;11.754;2023-11-21T16:32:43;12.53;;;4.77;;
21183;SDS011;18176;49.502;11.754;2023-11-21T16:36:44;19.20;;;5.37;;
21183;SDS011;18176;49.502;11.754;2023-11-21T16:40:45;13.13;;;5.20;;
21183;SDS011;18176;49.502;11.754;2023-11-21T16:44:49;8.43;;;4.10;;
21183;SDS011;18176;49.502;11.754;2023-11-21T16:48:50;9.77;;;5.23;;
21183;SDS011;18176;49.502;11.754;2023-11-21T16:52:50;12.13;;;4.53;;
21183;SDS011;18176;49.502;11.754;2023-11-21T16:56:50;8.27;;;4.80;;
21183;SDS011;18176;49.502;11.754;2023-11-21T17:00:53;9.83;;;3.80;;
21183;SDS011;18176;49.502;11.754;2023-11-21T17:04:54;10.47;;;4.53;;
21183;SDS011;18176;49.502;11.754;2023-11-21T17:08:55;12.80;;;4.43;;
21183;SDS011;18176;49.502;11.754;2023-11-21T17:12:57;16.37;;;7.60;;
21183;SDS011;18176;49.502;11.754;2023-11-21T17:17:00;13.90;;;6.07;;
21183;SDS011;18176;49.502;11.754;2023-11-21T17:21:05;9.37;;;4.63;;
21183;SDS011;18176;49.502;11.754;2023-11-21T17:25:11;10.97;;;6.97;;
21183;SDS011;18176;49.502;11.754;2023-11-21T17:29:12;11.33;;;6.10;;
21183;SDS011;18176;49.502;11.754;2023-11-21T17:33:15;11.37;;;6.47;;
21183;SDS011;18176;49.502;11.754;2023-11-21T17:37:16;13.47;;;8.97;;
21183;SDS011;18176;49.502;11.754;2023-11-21T17:41:19;11.53;;;4.87;;
21183;SDS011;18176;49.502;11.754;2023-11-21T17:45:20;12.87;;;6.90;;
21183;SDS011;18176;49.502;11.754;2023-11-21T17:49:24;13.43;;;7.50;;
21183;SDS011;18176;49.502;11.754;2023-11-21T17:53:26;10.60;;;6.33;;
21183;SDS011;18176;49.502;11.754;2023-11-21T17:57:26;8.60;;;5.40;;
21183;SDS011;18176;49.502;11.754;2023-11-21T18:01:27;16.70;;;9.93;;
21183;SDS011;18176;49.502;11.754;2023-11-21T18:05:32;10.13;;;5.50;;
21183;SDS011;18176;49.502;11.754;2023-11-21T18:09:34;8.47;;;5.03;;
21183;SDS011;18176;49.502;11.754;2023-11-21T18:13:36;12.43;;;6.77;;
21183;SDS011;18176;49.502;11.754;2023-11-21T18:17:36;13.53;;;8.40;;
21183;SDS011;18176;49.502;11.754;2023-11-21T18:21:42;12.93;;;6.90;;
21183;SDS011;18176;49.502;11.754;2023-11-21T18:25:42;11.70;;;6.63;;
21183;SDS011;18176;49.502;11.754;2023-11-21T18:29:42;15.37;;;7.53;;
21183;SDS011;18176;49.502;11.754;2023-11-21T18:33:43;14.17;;;6.77;;
21183;SDS011;18176;49.502;11.754;2023-11-21T18:37:46;11.93;;;6.10;;
21183;SDS011;18176;49.502;11.754;2023-11-21T18:41:46;12.63;;;5.67;;
21183;SDS011;18176;49.502;11.754;2023-11-21T18:45:48;11.87;;;5.63;;
21183;SDS011;18176;49.502;11.754;2023-11-21T18:49:48;7.50;;;4.73;;
21183;SDS011;18176;49.502;11.754;2023-11-21T18:53:51;9.13;;;4.80;;
21183;SDS011;18176;49.502;11.754;2023-11-21T18:57:52;11.50;;;4.90;;
21183;SDS011;18176;49.502;11.754;2023-11-21T19:01:52;10.00;;;4.73;;
21183;SDS011;18176;49.502;11.754;2023-11-21T19:05:52;10.27;;;5.07;;
21183;SDS011;18176;49.502;11.754;2023-11-21T19:09:55;4.27;;;2.90;;
21183;SDS011;18176;49.502;11.754;2023-11-21T19:13:56;4.13;;;3.07;;
21183;SDS011;18176;49.502;11.754;2023-11-21T19:17:57;4.63;;;2.60;;
21183;SDS011;18176;49.502;11.754;2023-11-21T19:21:57;5.73;;;2.80;;
21183;SDS011;18176;49.502;11.754;2023-11-21T19:26:00;6.13;;;2.83;;
21183;SDS011;18176;49.502;11.754;2023-11-21T19:30:01;5.57;;;2.90;;
21183;SDS011;18176;49.502;11.754;2023-11-21T19:34:04;5.77;;;2.93;;
21183;SDS011;18176;49.502;11.754;2023-11-21T19:38:05;3.93;;;2.63;;
21183;SDS011;18176;49.502;11.754;2023-11-21T19:42:09;4.80;;;4.10;;
21183;SDS011;18176;49.502;11.754;2023-11-21T19:46:09;4.90;;;3.10;;
21183;SDS011;18176;49.502;11.754;2023-11-21T19:50:10;4.90;;;3.07;;
21183;SDS011;18176;49.502;11.754;2023-11-21T19:54:10;2.87;;;2.20;;
21183;SDS011;18176;49.502;11.754;2023-11-21T19:58:13;3.97;;;2.00;;
21183;SDS011;18176;49.502;11.754;2023-11-21T20:02:14;2.20;;;1.90;;
21183;SDS011;18176;49.502;11.754;2023-11-21T20:06:15;3.07;;;1.63;;
21183;SDS011;18176;49.502;11.754;2023-11-21T20:10:17;2.60;;;1.83;;
21183;SDS011;18176;49.502;11.754;2023-11-21T20:14:21;1.80;;;1.60;;
21183;SDS011;18176;49.502;11.754;2023-11-21T20:18:23;2.57;;;1.80;;
21183;SDS011;18176;49.502;11.754;2023-11-21T20:22:27;3.23;;;2.33;;
21183;SDS011;18176;49.502;11.754;2023-11-21T20:26:32;2.57;;;2.00;;
21183;SDS011;18176;49.502;11.754;2023-11-21T20:30:36;2.97;;;2.37;;
21183;SDS011;18176;49.502;11.754;2023-11-21T20:34:37;3.10;;;2.60;;
21183;SDS011;18176;49.502;11.754;2023-11-21T20:38:37;3.43;;;2.50;;
21183;SDS011;18176;49.502;11.754;2023-11-21T20:42:38;2.63;;;2.20;;
21183;SDS011;18176;49.502;11.754;2023-11-21T20:46:45;3.73;;;2.80;;
21183;SDS011;18176;49.502;11.754;2023-11-21T20:50:53;5.93;;;3.30;;
21183;SDS011;18176;49.502;11.754;2023-11-21T20:54:53;11.20;;;4.37;;
21183;SDS011;18176;49.502;11.754;2023-11-21T20:58:54;14.10;;;5.10;;
21183;SDS011;18176;49.502;11.754;2023-11-21T21:02:59;7.73;;;3.80;;
21183;SDS011;18176;49.502;11.754;2023-11-21T21:07:00;9.80;;;4.10;;
21183;SDS011;18176;49.502;11.754;2023-11-21T21:11:00;6.50;;;3.80;;
21183;SDS011;18176;49.502;11.754;2023-11-21T21:15:04;10.30;;;4.97;;
21183;SDS011;18176;49.502;11.754;2023-11-21T21:19:10;14.20;;;5.83;;
21183;SDS011;18176;49.502;11.754;2023-11-21T21:23:10;20.40;;;7.03;;
21183;SDS011;18176;49.502;11.754;2023-11-21T21:27:11;18.93;;;7.37;;
21183;SDS011;18176;49.502;11.754;2023-11-21T21:31:12;15.57;;;6.57;;
21183;SDS011;18176;49.502;11.754;2023-11-21T21:35:15;15.60;;;6.50;;
21183;SDS011;18176;49.502;11.754;2023-11-21T21:39:17;16.00;;;7.90;;
21183;SDS011;18176;49.502;11.754;2023-11-21T21:43:17;10.80;;;5.37;;
21183;SDS011;18176;49.502;11.754;2023-11-21T21:47:18;7.93;;;4.70;;
21183;SDS011;18176;49.502;11.754;2023-11-21T21:51:21;10.77;;;5.07;;
21183;SDS011;18176;49.502;11.754;2023-11-21T21:55:21;7.80;;;4.43;;
21183;SDS011;18176;49.502;11.754;2023-11-21T21:59:23;9.30;;;4.97;;
21183;SDS011;18176;49.502;11.754;2023-11-21T22:03:24;7.10;;;4.53;;
21183;SDS011;18176;49.502;11.754;2023-11-21T22:07:27;7.40;;;4.43;;
21183;SDS011;18176;49.502;11.754;2023-11-21T22:11:27;7.23;;;5.10;;
21183;SDS011;18176;49.502;11.754;2023-11-21T22:15:27;5.40;;;4.20;;
21183;SDS011;18176;49.502;11.754;2023-11-21T22:19:28;5.53;;;4.17;;
21183;SDS011;18176;49.502;11.754;2023-11-21T22:23:31;5.57;;;4.27;;
21183;SDS011;18176;49.502;11.754;2023-11-21T22:27:33;5.67;;;4.27;;
21183;SDS011;18176;49.502;11.754;2023-11-21T22:31:33;7.13;;;4.67;;
21183;SDS011;18176;49.502;11.754;2023-11-21T22:35:38;7.57;;;4.53;;
21183;SDS011;18176;49.502;11.754;2023-11-21T22:39:44;5.33;;;3.93;;
21183;SDS011;18176;49.502;11.754;2023-11-21T22:43:44;5.60;;;4.00;;
21183;SDS011;18176;49.502;11.754;2023-11-21T22:47:45;6.57;;;4.37;;
21183;SDS011;18176;49.502;11.754;2023-11-21T22:51:45;4.83;;;3.77;;
21183;SDS011;18176;49.502;11.754;2023-11-21T22:55:48;5.17;;;3.70;;
21183;SDS011;18176;49.502;11.754;2023-11-21T22:59:48;6.37;;;4.13;;
21183;SDS011;18176;49.502;11.754;2023-11-21T23:03:49;4.60;;;3.43;;
21183;SDS011;18176;49.502;11.754;2023-11-21T23:07:50;5.23;;;3.27;;
21183;SDS011;18176;49.502;11.754;2023-11-21T23:11:53;4.10;;;3.30;;
21183;SDS011;18176;49.502;11.754;2023-11-21T23:15:54;4.00;;;2.90;;
21183;SDS011;18176;49.502;11.754;2023-11-21T23:19:54;3.83;;;2.93;;
21183;SDS011;18176;49.502;11.754;2023-11-21T23:23:55;3.63;;;2.33;;
21183;SDS011;18176;49.502;11.754;2023-11-21T23:27:59;2.77;;;1.83;;
21183;SDS011;18176;49.502;11.754;2023-11-21T23:31:59;2.40;;;2.10;;
21183;SDS011;18176;49.502;11.754;2023-11-21T23:35:59;2.13;;;1.93;;
21183;SDS011;18176;49.502;11.754;2023-11-21T23:40:00;2.30;;;1.90;;
21183;SDS011;18176;49.502;11.754;2023-11-21T23:44:06;1.77;;;1.67;;
21183;SDS011;18176;49.502;11.754;2023-11-21T23:48:06;1.67;;;1.50;;
21183;SDS011;18176;49.502;11.754;2023-11-21T23:52:06;1.80;;;1.50;;